sensor_id;sensor_type;location;lat;lon;timestamp;pressure;altitude;pressure_sealevel;temperature;humidity
31331;BME280;34067;39.548;-76.088;2022-10-16T00:01:22;101327.49;;;18.84;55.52
31331;BME280;34067;39.548;-76.088;2022-10-16T00:03:50;101331.52;;;18.08;57.91
31331;BME280;34067;39.548;-76.088;2022-10-16T00:06:20;101329.73;;;18.09;59.21
31331;BME280;34067;39.548;-76.088;2022-10-16T00:08:49;101330.43;;;18.51;59.00
31331;BME280;34067;39.548;-76.088;2022-10-16T00:11:21;101330.14;;;18.75;57.77
31331;BME280;34067;39.548;-76.088;2022-10-16T00:13:52;101333.64;;;18.75;58.55
31331;BME280;34067;39.548;-76.088;2022-10-16T00:16:22;101333.22;;;18.50;58.06
31331;BME280;34067;39.548;-76.088;2022-10-16T00:18:49;101334.43;;;18.28;59.71
31331;BME280;34067;39.548;-76.088;2022-10-16T00:21:21;101332.13;;;17.88;57.56
31331;BME280;34067;39.548;-76.088;2022-10-16T00:23:51;101337.14;;;17.01;58.48
31331;BME280;34067;39.548;-76.088;2022-10-16T00:26:20;101336.39;;;17.25;57.82
31331;BME280;34067;39.548;-76.088;2022-10-16T00:28:49;101332.98;;;17.84;56.00
31331;BME280;34067;39.548;-76.088;2022-10-16T00:31:19;101337.77;;;17.84;55.63
31331;BME280;34067;39.548;-76.088;2022-10-16T00:33:48;101339.12;;;17.76;55.73
31331;BME280;34067;39.548;-76.088;2022-10-16T00:36:18;101338.95;;;17.93;54.90
31331;BME280;34067;39.548;-76.088;2022-10-16T00:38:49;101345.28;;;17.86;56.41
31331;BME280;34067;39.548;-76.088;2022-10-16T00:41:17;101346.40;;;17.87;56.87
31331;BME280;34067;39.548;-76.088;2022-10-16T00:43:47;101351.16;;;17.57;57.86
31331;BME280;34067;39.548;-76.088;2022-10-16T00:46:19;101357.90;;;17.04;61.67
31331;BME280;34067;39.548;-76.088;2022-10-16T00:48:52;101357.13;;;17.67;60.78
31331;BME280;34067;39.548;-76.088;2022-10-16T00:51:25;101360.60;;;18.00;60.50
31331;BME280;34067;39.548;-76.088;2022-10-16T00:53:56;101356.51;;;17.55;58.33
31331;BME280;34067;39.548;-76.088;2022-10-16T00:56:24;101356.21;;;16.99;59.18
31331;BME280;34067;39.548;-76.088;2022-10-16T00:58:52;101355.98;;;17.53;59.16
31331;BME280;34067;39.548;-76.088;2022-10-16T01:01:20;101355.18;;;17.19;60.23
31331;BME280;34067;39.548;-76.088;2022-10-16T01:03:48;101356.82;;;17.02;60.15
31331;BME280;34067;39.548;-76.088;2022-10-16T01:06:23;101355.91;;;17.56;59.57
31331;BME280;34067;39.548;-76.088;2022-10-16T01:09:03;101359.75;;;17.57;60.64
31331;BME280;34067;39.548;-76.088;2022-10-16T01:11:43;101358.82;;;17.15;60.57
31331;BME280;34067;39.548;-76.088;2022-10-16T01:14:25;101361.02;;;17.22;60.09
31331;BME280;34067;39.548;-76.088;2022-10-16T01:17:00;101364.01;;;16.97;60.37
31331;BME280;34067;39.548;-76.088;2022-10-16T01:19:53;101366.70;;;16.90;61.48
31331;BME280;34067;39.548;-76.088;2022-10-16T01:22:26;101370.34;;;16.78;63.89
31331;BME280;34067;39.548;-76.088;2022-10-16T01:25:09;101370.43;;;17.02;65.48
31331;BME280;34067;39.548;-76.088;2022-10-16T01:27:41;101370.51;;;16.75;66.31
31331;BME280;34067;39.548;-76.088;2022-10-16T01:30:15;101372.40;;;16.61;68.84
31331;BME280;34067;39.548;-76.088;2022-10-16T01:32:50;101371.40;;;16.65;66.49
31331;BME280;34067;39.548;-76.088;2022-10-16T01:35:23;101371.81;;;16.23;67.48
31331;BME280;34067;39.548;-76.088;2022-10-16T01:37:58;101376.26;;;16.08;68.97
31331;BME280;34067;39.548;-76.088;2022-10-16T01:40:30;101373.63;;;16.22;67.97
31331;BME280;34067;39.548;-76.088;2022-10-16T01:43:02;101377.35;;;16.76;66.46
31331;BME280;34067;39.548;-76.088;2022-10-16T01:45:33;101381.41;;;16.69;66.57
31331;BME280;34067;39.548;-76.088;2022-10-16T01:48:04;101377.70;;;16.52;66.06
31331;BME280;34067;39.548;-76.088;2022-10-16T01:50:36;101380.32;;;16.86;66.08
31331;BME280;34067;39.548;-76.088;2022-10-16T01:53:06;101382.82;;;16.45;65.24
31331;BME280;34067;39.548;-76.088;2022-10-16T01:55:39;101385.02;;;16.33;65.90
31331;BME280;34067;39.548;-76.088;2022-10-16T01:58:09;101386.00;;;16.90;65.31
31331;BME280;34067;39.548;-76.088;2022-10-16T02:00:39;101385.50;;;16.96;66.28
31331;BME280;34067;39.548;-76.088;2022-10-16T02:03:09;101386.69;;;16.62;66.12
31331;BME280;34067;39.548;-76.088;2022-10-16T02:05:41;101388.45;;;16.40;65.98
31331;BME280;34067;39.548;-76.088;2022-10-16T02:08:13;101389.93;;;16.46;66.06
31331;BME280;34067;39.548;-76.088;2022-10-16T02:10:41;101391.76;;;17.31;66.05
31331;BME280;34067;39.548;-76.088;2022-10-16T02:13:12;101393.55;;;16.42;66.21
31331;BME280;34067;39.548;-76.088;2022-10-16T02:15:41;101396.67;;;16.44;65.82
31331;BME280;34067;39.548;-76.088;2022-10-16T02:18:09;101400.37;;;16.66;66.52
31331;BME280;34067;39.548;-76.088;2022-10-16T02:20:42;101403.27;;;16.26;66.55
31331;BME280;34067;39.548;-76.088;2022-10-16T02:23:17;101407.44;;;16.36;68.00
31331;BME280;34067;39.548;-76.088;2022-10-16T02:25:48;101409.76;;;16.50;67.08
31331;BME280;34067;39.548;-76.088;2022-10-16T02:28:22;101413.32;;;16.92;67.63
31331;BME280;34067;39.548;-76.088;2022-10-16T02:30:56;101420.07;;;16.39;66.56
31331;BME280;34067;39.548;-76.088;2022-10-16T02:33:27;101417.88;;;16.02;66.87
31331;BME280;34067;39.548;-76.088;2022-10-16T02:35:57;101419.28;;;16.15;66.82
31331;BME280;34067;39.548;-76.088;2022-10-16T02:38:26;101418.36;;;16.39;68.24
31331;BME280;34067;39.548;-76.088;2022-10-16T02:40:55;101417.67;;;16.22;68.97
31331;BME280;34067;39.548;-76.088;2022-10-16T02:43:22;101419.24;;;15.86;68.10
31331;BME280;34067;39.548;-76.088;2022-10-16T02:45:52;101422.05;;;15.63;67.99
31331;BME280;34067;39.548;-76.088;2022-10-16T02:48:19;101423.57;;;15.80;68.78
31331;BME280;34067;39.548;-76.088;2022-10-16T02:50:47;101431.91;;;16.08;68.94
31331;BME280;34067;39.548;-76.088;2022-10-16T02:53:15;101432.67;;;15.96;68.25
31331;BME280;34067;39.548;-76.088;2022-10-16T02:55:42;101433.27;;;16.21;68.23
31331;BME280;34067;39.548;-76.088;2022-10-16T02:58:10;101432.98;;;15.37;69.63
31331;BME280;34067;39.548;-76.088;2022-10-16T03:00:38;101432.32;;;16.08;70.57
31331;BME280;34067;39.548;-76.088;2022-10-16T03:03:06;101433.86;;;15.69;71.87
31331;BME280;34067;39.548;-76.088;2022-10-16T03:05:34;101434.53;;;15.91;73.22
31331;BME280;34067;39.548;-76.088;2022-10-16T03:08:01;101434.89;;;15.91;72.35
31331;BME280;34067;39.548;-76.088;2022-10-16T03:10:29;101436.42;;;15.32;74.51
31331;BME280;34067;39.548;-76.088;2022-10-16T03:12:57;101434.22;;;15.59;72.74
31331;BME280;34067;39.548;-76.088;2022-10-16T03:15:26;101436.00;;;16.70;72.09
31331;BME280;34067;39.548;-76.088;2022-10-16T03:17:53;101440.34;;;15.73;72.22
31331;BME280;34067;39.548;-76.088;2022-10-16T03:20:21;101440.08;;;16.04;72.85
31331;BME280;34067;39.548;-76.088;2022-10-16T03:22:49;101441.57;;;15.66;74.33
31331;BME280;34067;39.548;-76.088;2022-10-16T03:25:17;101445.52;;;15.81;74.10
31331;BME280;34067;39.548;-76.088;2022-10-16T03:27:46;101445.72;;;15.18;78.18
31331;BME280;34067;39.548;-76.088;2022-10-16T03:30:13;101444.14;;;15.50;78.67
31331;BME280;34067;39.548;-76.088;2022-10-16T03:32:41;101443.20;;;14.48;83.48
31331;BME280;34067;39.548;-76.088;2022-10-16T03:35:11;101438.63;;;14.62;84.14
31331;BME280;34067;39.548;-76.088;2022-10-16T03:37:39;101442.97;;;14.32;87.34
31331;BME280;34067;39.548;-76.088;2022-10-16T03:40:07;101445.00;;;13.20;94.18
31331;BME280;34067;39.548;-76.088;2022-10-16T03:42:35;101442.31;;;14.20;93.45
31331;BME280;34067;39.548;-76.088;2022-10-16T03:45:04;101440.20;;;14.08;89.28
31331;BME280;34067;39.548;-76.088;2022-10-16T03:47:33;101432.46;;;14.89;87.78
31331;BME280;34067;39.548;-76.088;2022-10-16T03:50:01;101431.86;;;14.61;85.70
31331;BME280;34067;39.548;-76.088;2022-10-16T03:52:30;101428.36;;;14.95;85.53
31331;BME280;34067;39.548;-76.088;2022-10-16T03:54:59;101434.40;;;14.83;85.28
31331;BME280;34067;39.548;-76.088;2022-10-16T03:57:26;101431.91;;;15.03;84.51
31331;BME280;34067;39.548;-76.088;2022-10-16T03:59:55;101435.03;;;14.72;84.89
31331;BME280;34067;39.548;-76.088;2022-10-16T04:02:23;101442.47;;;13.73;93.88
31331;BME280;34067;39.548;-76.088;2022-10-16T04:04:51;101442.90;;;13.64;92.01
31331;BME280;34067;39.548;-76.088;2022-10-16T04:07:19;101447.16;;;14.52;92.96
31331;BME280;34067;39.548;-76.088;2022-10-16T04:09:47;101447.67;;;11.92;100.00
31331;BME280;34067;39.548;-76.088;2022-10-16T04:12:15;101452.82;;;12.91;100.00
31331;BME280;34067;39.548;-76.088;2022-10-16T04:14:44;101456.80;;;11.52;100.00
31331;BME280;34067;39.548;-76.088;2022-10-16T04:17:11;101457.59;;;10.54;100.00
31331;BME280;34067;39.548;-76.088;2022-10-16T04:19:39;101454.99;;;11.07;100.00
31331;BME280;34067;39.548;-76.088;2022-10-16T04:22:07;101451.23;;;11.15;100.00
31331;BME280;34067;39.548;-76.088;2022-10-16T04:24:44;101451.26;;;10.75;100.00
31331;BME280;34067;39.548;-76.088;2022-10-16T04:27:12;101454.48;;;10.77;100.00
31331;BME280;34067;39.548;-76.088;2022-10-16T04:29:40;101451.60;;;10.80;100.00
31331;BME280;34067;39.548;-76.088;2022-10-16T04:32:09;101448.14;;;10.72;100.00
31331;BME280;34067;39.548;-76.088;2022-10-16T04:34:38;101449.54;;;10.59;100.00
31331;BME280;34067;39.548;-76.088;2022-10-16T04:37:06;101449.33;;;11.04;100.00
31331;BME280;34067;39.548;-76.088;2022-10-16T04:39:34;101447.67;;;10.89;100.00
31331;BME280;34067;39.548;-76.088;2022-10-16T04:42:02;101444.78;;;11.85;100.00
31331;BME280;34067;39.548;-76.088;2022-10-16T04:44:30;101440.80;;;13.38;100.00
31331;BME280;34067;39.548;-76.088;2022-10-16T04:46:59;101438.77;;;12.52;100.00
31331;BME280;34067;39.548;-76.088;2022-10-16T04:49:27;101440.93;;;12.45;100.00
31331;BME280;34067;39.548;-76.088;2022-10-16T04:51:55;101439.21;;;13.64;100.00
31331;BME280;34067;39.548;-76.088;2022-10-16T04:54:23;101434.84;;;13.70;96.22
31331;BME280;34067;39.548;-76.088;2022-10-16T04:56:51;101434.59;;;14.28;93.56
31331;BME280;34067;39.548;-76.088;2022-10-16T04:59:19;101441.24;;;13.91;94.46
31331;BME280;34067;39.548;-76.088;2022-10-16T05:03:09;101433.63;;;14.60;90.27
31331;BME280;34067;39.548;-76.088;2022-10-16T05:05:41;101437.63;;;14.40;90.41
31331;BME280;34067;39.548;-76.088;2022-10-16T05:08:09;101435.86;;;13.93;92.49
31331;BME280;34067;39.548;-76.088;2022-10-16T05:10:37;101435.66;;;13.55;93.01
31331;BME280;34067;39.548;-76.088;2022-10-16T05:13:05;101440.83;;;13.29;94.28
31331;BME280;34067;39.548;-76.088;2022-10-16T05:15:33;101435.36;;;14.46;91.27
31331;BME280;34067;39.548;-76.088;2022-10-16T05:18:02;101438.51;;;14.12;90.52
31331;BME280;34067;39.548;-76.088;2022-10-16T05:20:30;101434.52;;;12.76;98.24
31331;BME280;34067;39.548;-76.088;2022-10-16T05:22:57;101433.25;;;14.33;93.91
31331;BME280;34067;39.548;-76.088;2022-10-16T05:25:26;101424.01;;;12.79;100.00
31331;BME280;34067;39.548;-76.088;2022-10-16T05:27:54;101419.18;;;12.56;100.00
31331;BME280;34067;39.548;-76.088;2022-10-16T05:30:22;101427.70;;;12.08;100.00
31331;BME280;34067;39.548;-76.088;2022-10-16T05:32:50;101418.31;;;11.94;100.00
31331;BME280;34067;39.548;-76.088;2022-10-16T05:35:19;101429.70;;;12.33;100.00
31331;BME280;34067;39.548;-76.088;2022-10-16T05:37:48;101423.93;;;12.23;100.00
31331;BME280;34067;39.548;-76.088;2022-10-16T05:40:16;101428.65;;;10.30;100.00
31331;BME280;34067;39.548;-76.088;2022-10-16T05:42:44;101434.47;;;10.11;100.00
31331;BME280;34067;39.548;-76.088;2022-10-16T05:45:12;101437.60;;;9.12;100.00
31331;BME280;34067;39.548;-76.088;2022-10-16T05:47:40;101440.04;;;9.86;100.00
31331;BME280;34067;39.548;-76.088;2022-10-16T05:50:08;101442.91;;;9.41;100.00
31331;BME280;34067;39.548;-76.088;2022-10-16T05:52:36;101445.68;;;8.75;100.00
31331;BME280;34067;39.548;-76.088;2022-10-16T05:55:06;101432.18;;;9.06;100.00
31331;BME280;34067;39.548;-76.088;2022-10-16T05:57:33;101435.83;;;9.16;100.00
31331;BME280;34067;39.548;-76.088;2022-10-16T06:00:02;101440.98;;;10.08;100.00
31331;BME280;34067;39.548;-76.088;2022-10-16T06:02:30;101439.45;;;9.56;100.00
31331;BME280;34067;39.548;-76.088;2022-10-16T06:04:58;101451.56;;;10.59;100.00
31331;BME280;34067;39.548;-76.088;2022-10-16T06:07:25;101439.09;;;10.40;100.00
31331;BME280;34067;39.548;-76.088;2022-10-16T06:09:53;101435.33;;;10.79;100.00
31331;BME280;34067;39.548;-76.088;2022-10-16T06:12:21;101430.82;;;9.84;100.00
31331;BME280;34067;39.548;-76.088;2022-10-16T06:14:49;101441.74;;;9.98;100.00
31331;BME280;34067;39.548;-76.088;2022-10-16T06:17:17;101441.13;;;10.17;100.00
31331;BME280;34067;39.548;-76.088;2022-10-16T06:19:45;101437.70;;;10.90;100.00
31331;BME280;34067;39.548;-76.088;2022-10-16T06:22:12;101434.90;;;11.07;100.00
31331;BME280;34067;39.548;-76.088;2022-10-16T06:24:40;101436.92;;;11.46;100.00
31331;BME280;34067;39.548;-76.088;2022-10-16T06:27:08;101438.34;;;11.53;100.00
31331;BME280;34067;39.548;-76.088;2022-10-16T06:29:36;101437.35;;;11.31;100.00
31331;BME280;34067;39.548;-76.088;2022-10-16T06:32:04;101441.94;;;10.68;100.00
31331;BME280;34067;39.548;-76.088;2022-10-16T06:34:32;101439.46;;;10.78;100.00
31331;BME280;34067;39.548;-76.088;2022-10-16T06:37:00;101439.10;;;10.22;100.00
31331;BME280;34067;39.548;-76.088;2022-10-16T06:39:29;101439.82;;;11.26;100.00
31331;BME280;34067;39.548;-76.088;2022-10-16T06:41:56;101443.02;;;10.82;100.00
31331;BME280;34067;39.548;-76.088;2022-10-16T06:44:24;101439.96;;;10.90;100.00
31331;BME280;34067;39.548;-76.088;2022-10-16T06:46:51;101437.84;;;11.49;100.00
31331;BME280;34067;39.548;-76.088;2022-10-16T06:49:20;101442.06;;;11.12;100.00
31331;BME280;34067;39.548;-76.088;2022-10-16T06:51:47;101439.63;;;11.81;100.00
31331;BME280;34067;39.548;-76.088;2022-10-16T06:54:15;101441.09;;;9.74;100.00
31331;BME280;34067;39.548;-76.088;2022-10-16T06:56:43;101438.25;;;11.57;100.00
31331;BME280;34067;39.548;-76.088;2022-10-16T06:59:11;101437.65;;;11.22;100.00
31331;BME280;34067;39.548;-76.088;2022-10-16T07:01:38;101440.76;;;11.87;100.00
31331;BME280;34067;39.548;-76.088;2022-10-16T07:04:06;101434.44;;;11.98;100.00
31331;BME280;34067;39.548;-76.088;2022-10-16T07:06:34;101435.41;;;10.83;100.00
31331;BME280;34067;39.548;-76.088;2022-10-16T07:09:05;101431.26;;;11.82;100.00
31331;BME280;34067;39.548;-76.088;2022-10-16T07:11:34;101428.42;;;11.01;100.00
31331;BME280;34067;39.548;-76.088;2022-10-16T07:14:03;101431.41;;;11.84;100.00
31331;BME280;34067;39.548;-76.088;2022-10-16T07:16:32;101437.34;;;11.05;100.00
31331;BME280;34067;39.548;-76.088;2022-10-16T07:19:02;101435.90;;;10.33;100.00
31331;BME280;34067;39.548;-76.088;2022-10-16T07:21:32;101426.98;;;10.19;100.00
31331;BME280;34067;39.548;-76.088;2022-10-16T07:24:00;101444.80;;;8.72;100.00
31331;BME280;34067;39.548;-76.088;2022-10-16T07:26:30;101426.85;;;9.64;100.00
31331;BME280;34067;39.548;-76.088;2022-10-16T07:28:57;101427.35;;;9.49;100.00
31331;BME280;34067;39.548;-76.088;2022-10-16T07:31:25;101426.29;;;9.60;100.00
31331;BME280;34067;39.548;-76.088;2022-10-16T07:33:54;101418.23;;;9.59;100.00
31331;BME280;34067;39.548;-76.088;2022-10-16T07:36:22;101416.56;;;9.19;100.00
31331;BME280;34067;39.548;-76.088;2022-10-16T07:38:50;101411.47;;;9.17;100.00
31331;BME280;34067;39.548;-76.088;2022-10-16T07:41:19;101409.56;;;8.52;100.00
31331;BME280;34067;39.548;-76.088;2022-10-16T07:43:47;101411.46;;;9.20;100.00
31331;BME280;34067;39.548;-76.088;2022-10-16T07:46:17;101415.29;;;8.46;100.00
31331;BME280;34067;39.548;-76.088;2022-10-16T07:48:46;101422.52;;;8.53;100.00
31331;BME280;34067;39.548;-76.088;2022-10-16T07:51:16;101418.31;;;9.04;100.00
31331;BME280;34067;39.548;-76.088;2022-10-16T07:53:44;101418.69;;;8.31;100.00
31331;BME280;34067;39.548;-76.088;2022-10-16T07:56:12;101409.01;;;8.12;100.00
31331;BME280;34067;39.548;-76.088;2022-10-16T07:58:40;101427.51;;;7.77;100.00
31331;BME280;34067;39.548;-76.088;2022-10-16T08:01:10;101404.55;;;7.75;100.00
31331;BME280;34067;39.548;-76.088;2022-10-16T08:03:41;101412.50;;;8.34;100.00
31331;BME280;34067;39.548;-76.088;2022-10-16T08:06:10;101397.13;;;8.22;100.00
31331;BME280;34067;39.548;-76.088;2022-10-16T08:08:39;101407.71;;;7.89;100.00
31331;BME280;34067;39.548;-76.088;2022-10-16T08:11:06;101401.91;;;7.72;100.00
31331;BME280;34067;39.548;-76.088;2022-10-16T08:13:34;101409.92;;;8.79;100.00
31331;BME280;34067;39.548;-76.088;2022-10-16T08:16:02;101416.07;;;8.05;100.00
31331;BME280;34067;39.548;-76.088;2022-10-16T08:18:30;101409.37;;;8.19;100.00
31331;BME280;34067;39.548;-76.088;2022-10-16T08:20:58;101397.59;;;8.01;100.00
31331;BME280;34067;39.548;-76.088;2022-10-16T08:23:27;101414.35;;;8.82;100.00
31331;BME280;34067;39.548;-76.088;2022-10-16T08:25:56;101412.44;;;8.90;100.00
31331;BME280;34067;39.548;-76.088;2022-10-16T08:28:29;101412.34;;;8.92;100.00
31331;BME280;34067;39.548;-76.088;2022-10-16T08:31:06;101419.15;;;8.40;100.00
31331;BME280;34067;39.548;-76.088;2022-10-16T08:33:34;101425.04;;;8.99;100.00
31331;BME280;34067;39.548;-76.088;2022-10-16T08:36:03;101431.07;;;9.58;100.00
31331;BME280;34067;39.548;-76.088;2022-10-16T08:38:31;101438.10;;;8.92;100.00
31331;BME280;34067;39.548;-76.088;2022-10-16T08:42:21;101437.66;;;9.57;100.00
31331;BME280;34067;39.548;-76.088;2022-10-16T08:45:09;101444.90;;;8.87;100.00
31331;BME280;34067;39.548;-76.088;2022-10-16T08:47:48;101448.19;;;8.93;100.00
31331;BME280;34067;39.548;-76.088;2022-10-16T08:50:22;101447.60;;;9.17;100.00
31331;BME280;34067;39.548;-76.088;2022-10-16T08:52:51;101449.04;;;9.26;100.00
31331;BME280;34067;39.548;-76.088;2022-10-16T08:55:30;101451.14;;;8.80;100.00
31331;BME280;34067;39.548;-76.088;2022-10-16T08:57:59;101448.90;;;8.69;100.00
31331;BME280;34067;39.548;-76.088;2022-10-16T09:00:28;101453.21;;;9.04;100.00
31331;BME280;34067;39.548;-76.088;2022-10-16T09:03:05;101463.22;;;8.51;100.00
31331;BME280;34067;39.548;-76.088;2022-10-16T09:05:51;101464.95;;;8.92;100.00
31331;BME280;34067;39.548;-76.088;2022-10-16T09:08:30;101466.10;;;8.92;100.00
31331;BME280;34067;39.548;-76.088;2022-10-16T09:11:09;101461.75;;;8.16;100.00
31331;BME280;34067;39.548;-76.088;2022-10-16T09:13:47;101462.59;;;8.84;100.00
31331;BME280;34067;39.548;-76.088;2022-10-16T09:16:21;101448.84;;;8.00;100.00
31331;BME280;34067;39.548;-76.088;2022-10-16T09:18:57;101453.92;;;8.66;100.00
31331;BME280;34067;39.548;-76.088;2022-10-16T09:21:30;101457.75;;;9.51;100.00
31331;BME280;34067;39.548;-76.088;2022-10-16T09:24:04;101447.36;;;9.14;100.00
31331;BME280;34067;39.548;-76.088;2022-10-16T09:26:35;101454.80;;;9.06;100.00
31331;BME280;34067;39.548;-76.088;2022-10-16T09:29:03;101454.75;;;9.02;100.00
31331;BME280;34067;39.548;-76.088;2022-10-16T09:31:32;101453.50;;;8.59;100.00
31331;BME280;34067;39.548;-76.088;2022-10-16T09:34:04;101454.20;;;8.50;100.00
31331;BME280;34067;39.548;-76.088;2022-10-16T09:36:36;101458.45;;;8.59;100.00
31331;BME280;34067;39.548;-76.088;2022-10-16T09:39:08;101457.98;;;8.74;100.00
31331;BME280;34067;39.548;-76.088;2022-10-16T09:41:38;101464.40;;;8.31;100.00
31331;BME280;34067;39.548;-76.088;2022-10-16T09:44:18;101461.84;;;8.76;100.00
31331;BME280;34067;39.548;-76.088;2022-10-16T09:46:49;101469.22;;;8.76;100.00
31331;BME280;34067;39.548;-76.088;2022-10-16T09:49:22;101470.64;;;8.61;100.00
31331;BME280;34067;39.548;-76.088;2022-10-16T09:51:51;101463.84;;;8.10;100.00
31331;BME280;34067;39.548;-76.088;2022-10-16T09:54:31;101467.80;;;8.64;100.00
31331;BME280;34067;39.548;-76.088;2022-10-16T09:57:05;101467.80;;;8.51;100.00
31331;BME280;34067;39.548;-76.088;2022-10-16T09:59:34;101472.14;;;8.86;100.00
31331;BME280;34067;39.548;-76.088;2022-10-16T10:02:04;101473.09;;;8.12;100.00
31331;BME280;34067;39.548;-76.088;2022-10-16T10:04:48;101476.73;;;8.57;100.00
31331;BME280;34067;39.548;-76.088;2022-10-16T10:07:20;101479.94;;;8.09;100.00
31331;BME280;34067;39.548;-76.088;2022-10-16T10:09:51;101479.20;;;8.92;100.00
31331;BME280;34067;39.548;-76.088;2022-10-16T10:12:21;101475.17;;;8.91;100.00
31331;BME280;34067;39.548;-76.088;2022-10-16T10:14:52;101472.63;;;7.56;100.00
31331;BME280;34067;39.548;-76.088;2022-10-16T10:17:22;101465.29;;;8.55;100.00
31331;BME280;34067;39.548;-76.088;2022-10-16T10:19:52;101462.41;;;8.07;100.00
31331;BME280;34067;39.548;-76.088;2022-10-16T10:22:28;101472.37;;;7.68;100.00
31331;BME280;34067;39.548;-76.088;2022-10-16T10:25:10;101464.42;;;8.39;100.00
31331;BME280;34067;39.548;-76.088;2022-10-16T10:27:49;101470.10;;;9.00;100.00
31331;BME280;34067;39.548;-76.088;2022-10-16T10:30:25;101474.69;;;8.75;100.00
31331;BME280;34067;39.548;-76.088;2022-10-16T10:33:09;101478.32;;;8.53;100.00
31331;BME280;34067;39.548;-76.088;2022-10-16T10:35:45;101479.38;;;7.96;100.00
31331;BME280;34067;39.548;-76.088;2022-10-16T10:38:29;101481.88;;;7.84;100.00
31331;BME280;34067;39.548;-76.088;2022-10-16T10:41:11;101484.10;;;8.81;100.00
31331;BME280;34067;39.548;-76.088;2022-10-16T10:43:53;101481.13;;;8.18;100.00
31331;BME280;34067;39.548;-76.088;2022-10-16T10:46:32;101483.98;;;8.83;100.00
31331;BME280;34067;39.548;-76.088;2022-10-16T10:49:23;101480.34;;;8.85;100.00
31331;BME280;34067;39.548;-76.088;2022-10-16T10:52:07;101485.24;;;8.70;100.00
31331;BME280;34067;39.548;-76.088;2022-10-16T10:54:47;101483.49;;;8.45;100.00
31331;BME280;34067;39.548;-76.088;2022-10-16T10:57:25;101485.47;;;8.25;100.00
31331;BME280;34067;39.548;-76.088;2022-10-16T11:00:08;101491.03;;;8.70;100.00
31331;BME280;34067;39.548;-76.088;2022-10-16T11:02:44;101498.30;;;9.65;100.00
31331;BME280;34067;39.548;-76.088;2022-10-16T11:05:28;101498.95;;;7.76;100.00
31331;BME280;34067;39.548;-76.088;2022-10-16T11:08:00;101502.24;;;8.38;100.00
31331;BME280;34067;39.548;-76.088;2022-10-16T11:10:35;101505.83;;;7.30;100.00
31331;BME280;34067;39.548;-76.088;2022-10-16T11:13:15;101500.13;;;9.52;100.00
31331;BME280;34067;39.548;-76.088;2022-10-16T11:15:48;101504.49;;;8.34;100.00
31331;BME280;34067;39.548;-76.088;2022-10-16T11:18:21;101509.78;;;7.91;100.00
31331;BME280;34067;39.548;-76.088;2022-10-16T11:20:54;101508.58;;;7.94;100.00
31331;BME280;34067;39.548;-76.088;2022-10-16T11:23:26;101519.99;;;7.59;100.00
31331;BME280;34067;39.548;-76.088;2022-10-16T11:26:00;101529.68;;;7.43;100.00
31331;BME280;34067;39.548;-76.088;2022-10-16T11:28:34;101539.25;;;9.60;100.00
31331;BME280;34067;39.548;-76.088;2022-10-16T11:31:08;101533.20;;;7.82;100.00
31331;BME280;34067;39.548;-76.088;2022-10-16T11:33:41;101533.71;;;7.77;100.00
31331;BME280;34067;39.548;-76.088;2022-10-16T11:36:15;101535.09;;;7.80;100.00
31331;BME280;34067;39.548;-76.088;2022-10-16T11:38:50;101538.44;;;7.62;100.00
31331;BME280;34067;39.548;-76.088;2022-10-16T11:41:27;101535.49;;;7.37;100.00
31331;BME280;34067;39.548;-76.088;2022-10-16T11:44:09;101538.32;;;7.47;100.00
31331;BME280;34067;39.548;-76.088;2022-10-16T11:46:49;101543.59;;;8.53;100.00
31331;BME280;34067;39.548;-76.088;2022-10-16T11:49:22;101545.71;;;8.84;100.00
31331;BME280;34067;39.548;-76.088;2022-10-16T11:51:56;101550.07;;;8.02;100.00
31331;BME280;34067;39.548;-76.088;2022-10-16T11:54:32;101552.22;;;8.12;100.00
31331;BME280;34067;39.548;-76.088;2022-10-16T11:57:09;101550.56;;;8.01;100.00
31331;BME280;34067;39.548;-76.088;2022-10-16T11:59:44;101552.57;;;8.07;100.00
31331;BME280;34067;39.548;-76.088;2022-10-16T12:02:38;101552.74;;;7.89;100.00
31331;BME280;34067;39.548;-76.088;2022-10-16T12:05:22;101557.41;;;8.44;100.00
31331;BME280;34067;39.548;-76.088;2022-10-16T12:07:59;101556.72;;;8.69;100.00
31331;BME280;34067;39.548;-76.088;2022-10-16T12:10:30;101566.98;;;9.24;100.00
31331;BME280;34067;39.548;-76.088;2022-10-16T12:12:58;101572.65;;;7.73;100.00
31331;BME280;34067;39.548;-76.088;2022-10-16T12:15:28;101571.68;;;7.68;100.00
31331;BME280;34067;39.548;-76.088;2022-10-16T12:17:56;101573.68;;;7.74;100.00
31331;BME280;34067;39.548;-76.088;2022-10-16T12:20:27;101567.63;;;7.83;100.00
31331;BME280;34067;39.548;-76.088;2022-10-16T12:22:58;101570.36;;;8.54;100.00
31331;BME280;34067;39.548;-76.088;2022-10-16T12:25:28;101566.28;;;8.12;100.00
31331;BME280;34067;39.548;-76.088;2022-10-16T12:28:02;101567.26;;;9.40;100.00
31331;BME280;34067;39.548;-76.088;2022-10-16T12:30:33;101572.00;;;8.46;100.00
31331;BME280;34067;39.548;-76.088;2022-10-16T12:33:03;101569.18;;;8.88;100.00
31331;BME280;34067;39.548;-76.088;2022-10-16T12:35:34;101569.19;;;9.14;100.00
31331;BME280;34067;39.548;-76.088;2022-10-16T12:38:08;101573.17;;;9.06;100.00
31331;BME280;34067;39.548;-76.088;2022-10-16T12:40:42;101570.05;;;8.33;100.00
31331;BME280;34067;39.548;-76.088;2022-10-16T12:43:24;101576.37;;;7.90;100.00
31331;BME280;34067;39.548;-76.088;2022-10-16T12:46:03;101582.60;;;9.28;100.00
31331;BME280;34067;39.548;-76.088;2022-10-16T12:48:32;101583.42;;;9.69;100.00
31331;BME280;34067;39.548;-76.088;2022-10-16T12:51:11;101584.47;;;9.13;95.22